createdAt,value
2022-07-30T00:04:20.972Z,19.11
2022-07-30T00:09:25.137Z,19.05
2022-07-30T00:14:27.855Z,18.89
2022-07-30T00:19:30.574Z,19.13
2022-07-30T00:24:35.774Z,18.99
2022-07-30T00:29:38.425Z,18.80
2022-07-30T00:34:47.764Z,18.76
2022-07-30T00:39:51.771Z,18.61
2022-07-30T00:44:54.472Z,18.84
2022-07-30T00:49:57.106Z,18.76
2022-07-30T00:55:01.755Z,18.83
2022-07-30T01:00:05.402Z,18.57
2022-07-30T01:05:09.193Z,18.55
2022-07-30T01:10:15.541Z,18.47
2022-07-30T01:15:19.563Z,18.34
2022-07-30T01:20:25.105Z,18.24
2022-07-30T01:25:49.561Z,18.19
2022-07-30T01:30:55.293Z,18.16
2022-07-30T01:35:58.527Z,18.10
2022-07-30T01:41:02.520Z,18.10
2022-07-30T01:46:07.428Z,18.09
2022-07-30T01:51:12.735Z,18.02
2022-07-30T01:56:24.476Z,17.85
2022-07-30T02:01:29.390Z,17.90
2022-07-30T02:06:41.198Z,17.76
2022-07-30T02:12:05.955Z,17.75
2022-07-30T02:17:19.080Z,17.78
2022-07-30T02:22:23.498Z,17.69
2022-07-30T02:27:28.415Z,17.68
2022-07-30T02:32:37.334Z,17.67
2022-07-30T02:37:43.252Z,17.59
2022-07-30T02:42:49.787Z,17.56
2022-07-30T02:48:00.197Z,17.42
2022-07-30T02:53:04.255Z,17.39
2022-07-30T02:58:07.346Z,17.28
2022-07-30T03:03:11.615Z,17.21
2022-07-30T03:08:19.295Z,17.09
2022-07-30T03:13:24.765Z,16.98
2022-07-30T03:18:34.310Z,17.05
2022-07-30T03:23:38.063Z,17.06
2022-07-30T03:28:41.209Z,16.96
2022-07-30T03:33:45.754Z,16.93
2022-07-30T03:38:51.041Z,17.02
2022-07-30T03:43:54.856Z,16.96
2022-07-30T03:48:59.212Z,16.86
2022-07-30T03:54:02.510Z,16.91
2022-07-30T03:59:17.023Z,16.82
2022-07-30T04:04:21.831Z,16.74
2022-07-30T04:09:25.635Z,16.74
2022-07-30T04:14:28.589Z,16.73
2022-07-30T04:19:36.849Z,16.67
2022-07-30T04:24:39.954Z,16.55
2022-07-30T04:29:42.796Z,16.61
2022-07-30T04:34:50.794Z,16.64
2022-07-30T04:39:59.622Z,16.35
2022-07-30T04:45:02.290Z,16.51
2022-07-30T04:50:27.217Z,16.26
2022-07-30T04:55:30.457Z,16.38
2022-07-30T05:00:37.700Z,16.38
2022-07-30T05:05:45.664Z,16.30
2022-07-30T05:10:48.510Z,16.48
2022-07-30T05:15:51.235Z,17.24
2022-07-30T05:20:56.741Z,17.24
2022-07-30T05:26:04.949Z,17.38
2022-07-30T05:31:13.670Z,17.65
2022-07-30T05:36:25.083Z,17.77
2022-07-30T05:41:32.019Z,17.27
2022-07-30T05:46:35.904Z,17.54
2022-07-30T05:51:40.214Z,17.17
2022-07-30T05:56:44.468Z,17.03
2022-07-30T06:02:06.805Z,17.05
2022-07-30T06:07:29.374Z,17.04
2022-07-30T06:12:33.459Z,17.04
2022-07-30T06:17:42.779Z,16.99
2022-07-30T06:23:00.904Z,17.19
2022-07-30T06:28:39.508Z,17.48
2022-07-30T06:34:01.000Z,17.61
2022-07-30T06:39:10.302Z,17.88
2022-07-30T06:44:38.785Z,17.97
2022-07-30T06:50:02.712Z,17.97
2022-07-30T06:55:09.157Z,18.41
2022-07-30T07:00:18.635Z,18.60
2022-07-30T07:05:22.671Z,18.54
2022-07-30T07:10:28.391Z,19.04
2022-07-30T07:15:40.531Z,18.75
2022-07-30T07:20:47.983Z,19.33
2022-07-30T07:25:52.019Z,19.48
2022-07-30T07:30:55.059Z,19.68
2022-07-30T07:35:57.741Z,19.80
2022-07-30T07:41:06.357Z,19.66
2022-07-30T07:46:10.079Z,19.65
2022-07-30T07:51:12.962Z,20.25
2022-07-30T07:56:17.710Z,20.44
2022-07-30T08:01:20.705Z,20.48
2022-07-30T08:06:49.547Z,20.67
2022-07-30T08:12:28.665Z,20.85
2022-07-30T08:17:49.815Z,20.84
2022-07-30T08:22:59.059Z,21.24
2022-07-30T08:28:03.525Z,21.40
2022-07-30T08:33:06.303Z,21.16
2022-07-30T08:38:09.157Z,21.66
2022-07-30T08:43:14.018Z,21.89
2022-07-30T08:48:17.736Z,22.18
2022-07-30T08:53:21.747Z,22.08
2022-07-30T08:58:29.623Z,22.25
2022-07-30T09:03:32.590Z,21.98
2022-07-30T09:08:36.907Z,22.00
2022-07-30T09:13:42.575Z,22.53
2022-07-30T09:18:45.288Z,22.51
2022-07-30T09:23:58.964Z,22.45
2022-07-30T09:29:28.030Z,22.36
2022-07-30T09:34:49.119Z,22.76
2022-07-30T09:40:13.779Z,22.57
2022-07-30T09:45:57.486Z,22.60
2022-07-30T09:51:01.045Z,22.82
2022-07-30T09:56:24.662Z,23.12
2022-07-30T10:01:47.109Z,22.84
2022-07-30T10:07:25.727Z,23.01
2022-07-30T10:12:33.847Z,23.08
2022-07-30T10:17:39.482Z,23.51
2022-07-30T10:23:15.827Z,23.82
2022-07-30T10:28:54.329Z,22.64
2022-07-30T10:33:58.835Z,23.40
2022-07-30T10:39:01.822Z,23.61
2022-07-30T10:44:23.458Z,23.08
2022-07-30T10:49:27.702Z,23.51
2022-07-30T10:54:40.214Z,24.20
2022-07-30T11:00:15.437Z,23.59
2022-07-30T11:05:44.749Z,24.64
2022-07-30T11:10:47.984Z,23.69
2022-07-30T11:15:58.473Z,25.18
2022-07-30T11:21:22.490Z,24.53
2022-07-30T11:26:51.261Z,24.06
2022-07-30T11:32:07.608Z,23.92
2022-07-30T11:37:18.740Z,24.73
2022-07-30T11:42:25.881Z,25.12
2022-07-30T11:47:28.990Z,25.27
2022-07-30T11:52:33.551Z,24.99
2022-07-30T11:57:42.513Z,25.84
2022-07-30T12:02:45.890Z,26.22
2022-07-30T12:07:49.984Z,25.79
2022-07-30T12:12:52.656Z,25.18
2022-07-30T12:18:11.066Z,25.67
2022-07-30T12:23:21.678Z,25.40
2022-07-30T12:28:26.559Z,25.57
2022-07-30T12:33:32.126Z,25.38
2022-07-30T12:38:47.938Z,26.07
2022-07-30T12:43:52.206Z,26.38
2022-07-30T12:48:57.857Z,26.90
2022-07-30T12:54:03.603Z,25.44
2022-07-30T12:59:06.480Z,26.11
2022-07-30T13:04:09.579Z,25.16
2022-07-30T13:09:21.307Z,25.35
2022-07-30T13:14:26.354Z,24.99
2022-07-30T13:19:29.478Z,25.82
2022-07-30T13:24:34.073Z,26.84
2022-07-30T13:29:36.742Z,25.95
2022-07-30T13:34:40.167Z,25.53
2022-07-30T13:39:44.489Z,25.35
2022-07-30T13:44:47.145Z,25.20
2022-07-30T13:49:50.926Z,24.69
2022-07-30T13:54:54.926Z,25.33
2022-07-30T13:59:57.627Z,24.74
2022-07-30T14:05:00.273Z,24.46
2022-07-30T14:10:06.910Z,25.72
2022-07-30T14:15:12.886Z,25.40
2022-07-30T14:20:17.652Z,25.63
2022-07-30T14:25:22.793Z,24.89
2022-07-30T14:30:25.547Z,25.28
2022-07-30T14:35:28.243Z,24.76
2022-07-30T14:40:32.314Z,25.97
2022-07-30T14:45:36.475Z,25.85
2022-07-30T14:50:56.975Z,25.98
2022-07-30T14:56:03.265Z,25.92
2022-07-30T15:01:12.494Z,25.64
2022-07-30T15:06:19.536Z,25.68
2022-07-30T15:11:24.322Z,25.74
2022-07-30T15:16:28.531Z,25.78
2022-07-30T15:21:31.200Z,25.55
2022-07-30T15:26:35.191Z,25.45
2022-07-30T15:31:37.876Z,25.76
2022-07-30T15:36:40.720Z,25.62
2022-07-30T15:41:44.902Z,25.42
2022-07-30T15:46:47.547Z,25.18
2022-07-30T15:51:50.266Z,25.76
2022-07-30T15:57:01.052Z,25.21
2022-07-30T16:02:04.930Z,25.06
2022-07-30T16:07:08.131Z,25.11
2022-07-30T16:12:12.218Z,25.17
2022-07-30T16:17:16.325Z,25.12
2022-07-30T16:22:22.876Z,25.30
2022-07-30T16:27:28.138Z,25.35
2022-07-30T16:32:30.793Z,25.06
2022-07-30T16:37:33.457Z,25.23
2022-07-30T16:42:37.471Z,25.19
2022-07-30T16:47:40.160Z,25.31
2022-07-30T16:52:42.859Z,25.09
2022-07-30T16:57:46.851Z,25.08
2022-07-30T17:02:49.532Z,25.12
2022-07-30T17:07:52.175Z,25.12
2022-07-30T17:12:57.180Z,25.00
2022-07-30T17:18:00.018Z,24.71
2022-07-30T17:23:02.680Z,24.83
2022-07-30T17:28:06.804Z,24.79
2022-07-30T17:33:09.478Z,24.69
2022-07-30T17:38:12.122Z,24.68
2022-07-30T17:43:16.361Z,24.45
2022-07-30T17:48:19.078Z,24.40
2022-07-30T17:53:21.778Z,24.36
2022-07-30T17:58:25.851Z,24.21
2022-07-30T18:03:28.790Z,24.18
2022-07-30T18:08:32.858Z,24.11
2022-07-30T18:13:36.855Z,23.94
2022-07-30T18:18:40.038Z,23.79
2022-07-30T18:23:43.030Z,23.77
2022-07-30T18:28:47.451Z,23.72
2022-07-30T18:33:50.283Z,23.60
2022-07-30T18:38:53.044Z,23.54
2022-07-30T18:43:57.076Z,23.43
2022-07-30T18:49:10.832Z,23.37
2022-07-30T18:54:23.131Z,23.37
2022-07-30T18:59:27.124Z,23.23
2022-07-30T19:04:30.940Z,23.25
2022-07-30T19:09:33.925Z,23.21
2022-07-30T19:14:38.204Z,23.05
2022-07-30T19:19:41.337Z,22.87
2022-07-30T19:24:44.366Z,22.72
2022-07-30T19:29:48.346Z,22.50
2022-07-30T19:34:50.981Z,22.41
2022-07-30T19:40:05.418Z,22.24
2022-07-30T19:45:13.229Z,22.19
2022-07-30T19:50:16.037Z,22.13
2022-07-30T19:55:34.962Z,22.03
2022-07-30T20:00:48.519Z,22.01
2022-07-30T20:05:58.456Z,21.97
2022-07-30T20:11:02.486Z,21.87
2022-07-30T20:16:11.870Z,21.90
2022-07-30T20:21:15.970Z,21.77
2022-07-30T20:26:19.251Z,21.71
2022-07-30T20:31:23.877Z,21.68
2022-07-30T20:36:29.034Z,21.70
2022-07-30T20:41:31.677Z,21.67
2022-07-30T20:46:36.563Z,21.59
2022-07-30T20:51:41.491Z,21.42
2022-07-30T20:56:44.235Z,21.24
2022-07-30T21:01:48.360Z,21.30
2022-07-30T21:06:53.658Z,21.44
2022-07-30T21:11:56.655Z,21.25
2022-07-30T21:17:00.811Z,21.19
2022-07-30T21:22:03.694Z,21.04
2022-07-30T21:27:06.870Z,20.99
2022-07-30T21:32:12.719Z,21.05
2022-07-30T21:37:15.922Z,20.72
2022-07-30T21:42:18.639Z,20.74
2022-07-30T21:47:34.127Z,20.81
2022-07-30T21:52:37.044Z,20.71
2022-07-30T21:57:39.690Z,20.54
2022-07-30T22:02:53.880Z,20.53
2022-07-30T22:07:57.019Z,20.47
2022-07-30T22:12:59.675Z,20.45
2022-07-30T22:18:03.777Z,20.34
2022-07-30T22:23:07.247Z,20.38
2022-07-30T22:28:11.095Z,20.23
2022-07-30T22:33:17.043Z,20.16
2022-07-30T22:38:20.441Z,20.19
2022-07-30T22:43:26.962Z,20.52
2022-07-30T22:48:39.445Z,20.45
2022-07-30T22:54:10.867Z,20.44
2022-07-30T22:59:05.526Z,20.63
2022-07-30T23:04:09.883Z,20.75
2022-07-30T23:09:12.953Z,20.80
2022-07-30T23:14:15.578Z,20.73
2022-07-30T23:19:21.902Z,20.66
2022-07-30T23:24:24.994Z,20.59
2022-07-30T23:29:28.425Z,20.48
2022-07-30T23:34:32.427Z,20.39
2022-07-30T23:39:35.074Z,20.44
2022-07-30T23:44:37.878Z,20.54
2022-07-30T23:49:41.861Z,20.52
2022-07-30T23:54:44.528Z,20.47
2022-07-30T23:59:47.263Z,20.42
